createdAt,value
2018-02-06T00:01:47.443Z,6.93
2018-02-06T00:04:15.718Z,6.43
2018-02-06T00:06:43.598Z,6.90
2018-02-06T00:09:11.108Z,7.90
2018-02-06T00:11:38.659Z,8.00
2018-02-06T00:14:06.182Z,8.80
2018-02-06T00:16:33.761Z,8.80
2018-02-06T00:19:01.249Z,9.00
2018-02-06T00:21:28.894Z,8.50
2018-02-06T00:23:56.426Z,8.57
2018-02-06T00:26:24.608Z,9.40
2018-02-06T00:28:52.168Z,8.40
2018-02-06T00:31:19.701Z,8.57
2018-02-06T00:33:47.987Z,8.53
2018-02-06T00:36:15.523Z,8.93
2018-02-06T00:38:43.064Z,9.60
2018-02-06T00:41:10.566Z,8.77
2018-02-06T00:43:38.105Z,8.03
2018-02-06T00:46:06.564Z,8.53
2018-02-06T00:48:34.138Z,8.40
2018-02-06T00:51:01.805Z,8.63
2018-02-06T00:53:29.422Z,9.03
2018-02-06T00:55:56.977Z,9.37
2018-02-06T00:58:24.499Z,10.83
2018-02-06T01:00:52.014Z,9.70
2018-02-06T01:03:19.545Z,11.23
2018-02-06T01:05:47.058Z,9.80
2018-02-06T01:08:14.748Z,9.40
2018-02-06T01:10:42.256Z,8.67
2018-02-06T01:13:09.766Z,8.90
2018-02-06T01:15:38.090Z,9.43
2018-02-06T01:18:05.645Z,9.00
2018-02-06T01:20:33.931Z,8.90
2018-02-06T01:23:01.518Z,8.90
2018-02-06T01:25:29.453Z,9.63
2018-02-06T01:27:56.983Z,9.27
2018-02-06T01:30:24.614Z,10.23
2018-02-06T01:32:52.907Z,9.20
2018-02-06T01:35:20.408Z,8.63
2018-02-06T01:37:48.038Z,13.30
2018-02-06T01:40:15.589Z,12.60
2018-02-06T01:42:43.144Z,11.17
2018-02-06T01:45:10.909Z,10.47
2018-02-06T01:47:38.623Z,9.67
2018-02-06T01:50:06.275Z,9.80
2018-02-06T01:52:33.827Z,10.30
2018-02-06T01:55:01.352Z,8.83
2018-02-06T01:57:29.225Z,9.07
2018-02-06T01:59:56.726Z,10.10
2018-02-06T02:02:24.347Z,10.13
2018-02-06T02:04:51.886Z,9.40
2018-02-06T02:07:19.652Z,8.37
2018-02-06T02:09:47.164Z,9.00
2018-02-06T02:12:14.687Z,8.50
2018-02-06T02:14:42.251Z,9.70
2018-02-06T02:17:09.781Z,9.43
2018-02-06T02:19:37.342Z,8.77
2018-02-06T02:22:04.845Z,11.70
2018-02-06T02:24:32.420Z,10.87
2018-02-06T02:26:59.980Z,10.87
2018-02-06T02:29:27.569Z,12.80
2018-02-06T02:31:55.202Z,9.90
2018-02-06T02:34:22.935Z,9.80
2018-02-06T02:36:50.427Z,9.70
2018-02-06T02:39:18.032Z,9.83
2018-02-06T04:39:59.672Z,9.20
2018-02-06T04:42:27.161Z,7.80
2018-02-06T04:44:54.677Z,8.03
2018-02-06T04:47:22.620Z,8.00
2018-02-06T04:49:50.123Z,7.77
2018-02-06T04:52:17.759Z,8.37
2018-02-06T04:54:45.407Z,7.57
2018-02-06T04:57:13.686Z,7.87
2018-02-06T04:59:41.221Z,7.67
2018-02-06T05:02:09.632Z,7.27
2018-02-06T05:04:37.142Z,8.30
2018-02-06T05:07:04.645Z,7.67
2018-02-06T05:09:32.193Z,7.10
2018-02-06T05:11:59.699Z,8.77
2018-02-06T05:14:27.232Z,7.73
2018-02-06T05:16:54.923Z,7.70
2018-02-06T05:19:22.439Z,8.10
2018-02-06T05:21:50.108Z,8.20
2018-02-06T05:24:17.624Z,8.33
2018-02-06T05:26:45.168Z,7.43
2018-02-06T05:29:12.658Z,8.20
2018-02-06T05:31:40.203Z,8.23
2018-02-06T05:34:07.813Z,8.83
2018-02-06T05:36:35.335Z,9.30
2018-02-06T05:39:03.634Z,8.83
2018-02-06T05:41:31.163Z,9.27
2018-02-06T05:43:58.732Z,10.70
2018-02-06T05:46:27.277Z,16.43
2018-02-06T05:48:54.830Z,9.67
2018-02-06T05:51:22.558Z,11.13
2018-02-06T05:53:50.216Z,8.90
2018-02-06T05:56:17.707Z,10.67
2018-02-06T05:58:45.335Z,10.43
2018-02-06T06:01:14.034Z,26.33
2018-02-06T06:03:42.064Z,10.43
2018-02-06T06:06:09.570Z,23.33
2018-02-06T06:08:37.083Z,13.53
2018-02-06T06:11:04.610Z,11.60
2018-02-06T06:13:32.137Z,8.90
2018-02-06T06:15:59.673Z,9.70
2018-02-06T06:18:27.190Z,9.60
2018-02-06T06:20:54.691Z,10.23
2018-02-06T06:23:22.199Z,9.63
2018-02-06T06:25:49.727Z,7.73
2018-02-06T06:28:17.384Z,8.97
2018-02-06T06:30:45.162Z,7.73
2018-02-06T06:33:13.746Z,10.17
2018-02-06T06:35:41.261Z,9.27
2018-02-06T06:38:08.845Z,8.53
2018-02-06T06:40:36.366Z,7.70
2018-02-06T06:43:03.915Z,7.77
2018-02-06T06:45:32.142Z,8.03
2018-02-06T06:47:59.643Z,7.50
2018-02-06T06:50:27.484Z,6.90
2018-02-06T06:52:55.531Z,7.10
2018-02-06T06:55:23.789Z,7.03
2018-02-06T06:57:51.587Z,7.67
2018-02-06T07:00:19.522Z,6.80
2018-02-06T07:02:47.431Z,6.17
2018-02-06T07:05:14.991Z,6.27
2018-02-06T07:07:42.692Z,6.70
2018-02-06T07:10:10.253Z,6.20
2018-02-06T07:12:37.956Z,6.80
2018-02-06T07:15:06.464Z,6.63
2018-02-06T07:17:34.021Z,6.87
2018-02-06T07:20:01.532Z,7.00
2018-02-06T07:22:29.062Z,6.97
2018-02-06T07:24:56.770Z,6.87
2018-02-06T07:27:25.207Z,5.70
2018-02-06T07:29:52.738Z,6.37
2018-02-06T07:32:20.244Z,7.00
2018-02-06T07:34:47.735Z,6.37
2018-02-06T07:37:15.286Z,6.57
2018-02-06T07:39:43.576Z,7.07
2018-02-06T07:42:11.175Z,7.77
2018-02-06T07:44:38.794Z,8.57
2018-02-06T07:47:06.295Z,9.07
2018-02-06T07:49:33.799Z,7.93
2018-02-06T07:52:01.348Z,7.70
2018-02-06T07:54:29.178Z,8.67
2018-02-06T07:56:56.701Z,8.60
2018-02-06T07:59:24.346Z,7.90
2018-02-06T08:01:52.610Z,8.20
2018-02-06T08:04:21.750Z,8.50
2018-02-06T08:06:49.256Z,8.90
2018-02-06T08:09:16.742Z,7.90
2018-02-06T08:11:44.750Z,7.53
2018-02-06T08:14:12.495Z,8.30
2018-02-06T08:16:40.015Z,7.23
2018-02-06T08:19:07.499Z,6.77
2018-02-06T08:21:36.586Z,7.10
2018-02-06T08:24:05.075Z,6.17
2018-02-06T08:26:32.558Z,6.27
2018-02-06T08:29:00.217Z,6.20
2018-02-06T08:31:27.707Z,7.37
2018-02-06T08:33:55.390Z,6.53
2018-02-06T08:36:23.117Z,6.50
2018-02-06T08:38:50.630Z,6.77
2018-02-06T08:41:19.001Z,6.77
2018-02-06T08:43:46.583Z,6.30
2018-02-06T08:46:14.232Z,6.60
2018-02-06T08:48:43.167Z,6.47
2018-02-06T08:51:10.718Z,5.50
2018-02-06T08:53:38.243Z,5.97
2018-02-06T08:56:05.772Z,5.73
2018-02-06T08:58:33.306Z,5.90
2018-02-06T09:01:01.434Z,4.97
2018-02-06T09:03:29.035Z,6.37
2018-02-06T09:05:56.553Z,6.17
2018-02-06T09:08:24.887Z,6.27
2018-02-06T09:10:52.473Z,6.57
2018-02-06T09:13:20.031Z,6.57
2018-02-06T09:15:49.103Z,6.13
2018-02-06T09:18:16.912Z,6.30
2018-02-06T09:20:44.545Z,5.97
2018-02-06T09:23:12.375Z,7.27
2018-02-06T09:25:40.805Z,6.43
2018-02-06T09:28:08.776Z,6.87
2018-02-06T09:30:36.565Z,6.87
2018-02-06T09:33:04.299Z,7.13
2018-02-06T09:35:32.010Z,6.73
2018-02-06T09:38:00.199Z,6.80
2018-02-06T09:40:27.728Z,7.40
2018-02-06T09:42:55.564Z,6.60
2018-02-06T09:45:23.805Z,7.07
2018-02-06T09:47:51.351Z,7.60
2018-02-06T09:50:18.939Z,6.80
2018-02-06T09:52:46.562Z,6.63
2018-02-06T09:55:14.082Z,6.23
2018-02-06T09:57:42.090Z,5.93
2018-02-06T10:00:09.631Z,7.30
2018-02-06T10:02:37.905Z,6.37
2018-02-06T10:05:05.440Z,6.40
2018-02-06T10:07:32.968Z,6.07
2018-02-06T10:10:01.353Z,6.57
2018-02-06T10:12:29.428Z,6.90
2018-02-06T10:14:57.697Z,6.40
2018-02-06T10:17:25.394Z,6.27
2018-02-06T10:19:52.976Z,6.37
2018-02-06T10:22:21.708Z,6.10
2018-02-06T10:24:49.295Z,6.03
2018-02-06T10:27:16.875Z,6.10
2018-02-06T10:29:45.165Z,6.77
2018-02-06T10:32:14.566Z,6.70
2018-02-06T10:34:43.008Z,6.73
2018-02-06T10:37:11.347Z,6.07
2018-02-06T10:39:39.086Z,5.77
2018-02-06T10:42:06.941Z,6.60
2018-02-06T10:44:35.252Z,6.73
2018-02-06T10:47:02.783Z,6.33
2018-02-06T10:49:30.340Z,6.73
2018-02-06T10:51:57.937Z,6.23
2018-02-06T10:54:25.513Z,6.57
2018-02-06T10:56:53.082Z,6.90
2018-02-06T10:59:20.643Z,7.10
2018-02-06T11:01:48.571Z,5.67
2018-02-06T11:04:16.909Z,6.23
2018-02-06T11:06:44.642Z,7.50
2018-02-06T11:09:12.418Z,6.40
2018-02-06T11:11:39.912Z,6.13
2018-02-06T11:14:08.377Z,8.27
2018-02-06T11:16:35.931Z,6.63
2018-02-06T11:19:03.962Z,6.33
2018-02-06T11:21:31.522Z,5.80
2018-02-06T11:23:59.097Z,6.93
2018-02-06T11:26:26.849Z,7.53
2018-02-06T11:28:54.498Z,5.93
2018-02-06T11:31:22.232Z,6.73
2018-02-06T11:33:51.353Z,6.40
2018-02-06T11:36:19.857Z,6.87
2018-02-06T11:38:47.414Z,6.40
2018-02-06T11:41:15.142Z,6.53
2018-02-06T11:43:42.687Z,6.03
2018-02-06T11:46:10.259Z,6.87
2018-02-06T11:48:37.790Z,6.97
2018-02-06T11:51:05.426Z,7.23
2018-02-06T11:53:32.973Z,6.57
2018-02-06T11:56:00.508Z,5.73
2018-02-06T11:58:28.023Z,6.47
2018-02-06T12:00:56.338Z,5.50
2018-02-06T12:03:25.467Z,6.30
2018-02-06T12:05:53.161Z,5.40
2018-02-06T12:08:21.420Z,4.23
2018-02-06T12:10:50.007Z,5.17
2018-02-06T12:13:17.595Z,3.10
2018-02-06T12:15:45.139Z,6.33
2018-02-06T12:18:12.837Z,4.40
2018-02-06T12:20:41.030Z,5.30
2018-02-06T12:23:09.335Z,5.53
2018-02-06T12:25:36.984Z,5.20
2018-02-06T12:28:04.590Z,5.57
2018-02-06T12:30:32.121Z,4.10
2018-02-06T12:32:59.704Z,4.43
2018-02-06T12:35:27.346Z,4.03
2018-02-06T12:37:54.997Z,5.00
2018-02-06T12:40:22.553Z,5.87
2018-02-06T12:42:50.179Z,4.90
2018-02-06T12:45:18.707Z,5.37
2018-02-06T12:47:47.275Z,4.47
2018-02-06T12:50:15.160Z,5.10
2018-02-06T12:52:42.728Z,5.10
2018-02-06T12:55:11.514Z,3.60
2018-02-06T12:57:39.012Z,4.70
2018-02-06T13:00:07.028Z,4.37
2018-02-06T13:02:34.572Z,5.10
2018-02-06T13:05:02.177Z,4.57
2018-02-06T13:07:29.711Z,4.47
2018-02-06T13:09:57.297Z,4.43
2018-02-06T13:12:24.931Z,4.80
2018-02-06T13:14:53.187Z,4.90
2018-02-06T13:17:20.781Z,5.20
2018-02-06T13:19:48.440Z,5.20
2018-02-06T13:22:15.984Z,5.90
2018-02-06T13:24:43.543Z,4.60
2018-02-06T13:27:11.038Z,5.13
2018-02-06T13:29:39.500Z,4.60
2018-02-06T13:32:07.959Z,6.43
2018-02-06T13:34:35.653Z,5.63
2018-02-06T13:37:03.407Z,4.67
2018-02-06T13:39:31.232Z,4.97
2018-02-06T13:41:58.815Z,5.33
2018-02-06T13:44:26.640Z,4.60
2018-02-06T13:46:54.958Z,5.23
2018-02-06T13:49:22.597Z,5.10
2018-02-06T13:51:50.577Z,5.17
2018-02-06T13:54:18.681Z,3.73
2018-02-06T13:56:46.311Z,4.00
2018-02-06T13:59:13.983Z,4.37
2018-02-06T14:01:41.576Z,4.40
2018-02-06T14:04:09.399Z,5.07
2018-02-06T14:06:36.929Z,5.10
2018-02-06T14:09:04.508Z,5.27
2018-02-06T14:11:32.848Z,4.53
2018-02-06T14:14:00.421Z,5.10
2018-02-06T14:16:27.975Z,4.77
2018-02-06T14:18:55.586Z,4.90
2018-02-06T14:21:23.155Z,5.60
2018-02-06T14:23:51.267Z,5.00
2018-02-06T14:26:19.544Z,5.00
2018-02-06T14:28:47.968Z,4.53
2018-02-06T14:31:15.587Z,4.40
2018-02-06T14:33:43.182Z,5.90
2018-02-06T14:36:11.633Z,4.47
2018-02-06T14:38:39.173Z,4.57
2018-02-06T14:41:07.162Z,4.63
2018-02-06T14:43:34.711Z,4.10
2018-02-06T14:46:02.574Z,4.70
2018-02-06T14:48:30.118Z,5.87
2018-02-06T14:50:57.725Z,3.97
2018-02-06T14:53:25.270Z,5.30
2018-02-06T14:55:53.496Z,4.40
2018-02-06T14:58:21.673Z,5.17
2018-02-06T15:00:49.492Z,5.53
2018-02-06T15:03:17.140Z,5.50
2018-02-06T15:05:44.692Z,4.77
2018-02-06T15:08:12.500Z,4.90
2018-02-06T15:10:41.046Z,5.67
2018-02-06T15:13:08.845Z,5.73
2018-02-06T15:15:36.545Z,5.90
2018-02-06T15:18:04.142Z,5.10
2018-02-06T15:20:31.907Z,5.10
2018-02-06T15:22:59.620Z,5.20
2018-02-06T15:25:27.237Z,6.17
2018-02-06T15:27:56.870Z,5.20
2018-02-06T15:30:26.520Z,5.13
2018-02-06T15:32:54.780Z,6.13
2018-02-06T15:35:23.443Z,6.70
2018-02-06T15:37:52.063Z,5.00
2018-02-06T15:40:19.808Z,5.20
2018-02-06T15:42:47.564Z,6.50
2018-02-06T15:45:15.253Z,5.80
2018-02-06T15:47:42.987Z,4.23
2018-02-06T15:50:11.200Z,5.07
2018-02-06T15:52:38.799Z,5.50
2018-02-06T15:55:06.360Z,6.47
2018-02-06T15:57:33.945Z,5.33
2018-02-06T16:00:02.273Z,4.90
2018-02-06T16:02:30.442Z,5.70
2018-02-06T16:04:58.003Z,4.87
2018-02-06T16:07:25.576Z,6.17
2018-02-06T16:09:53.887Z,5.30
2018-02-06T16:12:21.571Z,5.87
2018-02-06T16:14:49.097Z,5.13
2018-02-06T16:17:17.570Z,6.23
2018-02-06T16:19:45.281Z,6.20
2018-02-06T16:22:12.867Z,6.63
2018-02-06T16:24:41.168Z,6.30
2018-02-06T16:27:08.750Z,6.53
2018-02-06T16:29:36.360Z,6.90
2018-02-06T16:32:04.374Z,7.20
2018-02-06T16:34:32.063Z,6.97
2018-02-06T16:37:00.298Z,7.67
2018-02-06T16:42:02.475Z,7.40
2018-02-06T16:44:30.361Z,7.07
2018-02-06T16:46:58.828Z,6.20
2018-02-06T16:49:26.528Z,5.63
2018-02-06T16:51:54.655Z,5.93
2018-02-06T16:54:22.210Z,6.60
2018-02-06T16:56:49.876Z,7.50
2018-02-06T16:59:17.391Z,6.97
2018-02-06T17:01:44.975Z,7.77
2018-02-06T17:04:13.439Z,5.33
2018-02-06T17:06:41.025Z,6.50
2018-02-06T17:09:08.556Z,7.30
2018-02-06T17:11:36.082Z,5.87
2018-02-06T17:14:03.865Z,7.53
2018-02-06T17:16:31.442Z,7.70
2018-02-06T17:18:59.047Z,7.10
2018-02-06T17:21:26.592Z,7.90
2018-02-06T17:23:54.139Z,8.13
2018-02-06T17:26:21.706Z,5.20
2018-02-06T17:28:49.374Z,8.20
2018-02-06T17:31:17.368Z,7.80
2018-02-06T17:33:44.932Z,8.30
2018-02-06T17:36:13.096Z,7.37
2018-02-06T17:38:40.606Z,9.37
2018-02-06T17:41:09.845Z,6.50
2018-02-06T17:43:38.640Z,9.13
2018-02-06T17:46:06.463Z,8.17
2018-02-06T17:48:34.011Z,7.10
2018-02-06T17:51:01.577Z,7.83
2018-02-06T17:53:29.127Z,8.30
2018-02-06T17:55:56.646Z,8.67
2018-02-06T17:58:24.171Z,6.97
2018-02-06T18:00:51.818Z,7.00
2018-02-06T18:03:19.679Z,4.23
2018-02-06T18:05:47.330Z,6.90
2018-02-06T18:08:14.930Z,9.37
2018-02-06T18:10:42.538Z,8.73
2018-02-06T18:13:10.207Z,9.33
2018-02-06T18:15:38.816Z,7.93
2018-02-06T18:18:07.193Z,8.60
2018-02-06T18:20:34.769Z,8.93
2018-02-06T18:23:02.327Z,9.20
2018-02-06T18:25:30.016Z,9.67
2018-02-06T18:27:58.439Z,8.70
2018-02-06T18:30:26.035Z,10.73
2018-02-06T18:32:53.656Z,9.97
2018-02-06T18:35:21.821Z,9.60
2018-02-06T18:37:50.570Z,9.30
2018-02-06T18:40:18.210Z,9.13
2018-02-06T18:42:45.753Z,9.63
2018-02-06T18:45:13.343Z,7.83
2018-02-06T18:47:40.997Z,8.60
2018-02-06T18:50:08.670Z,10.20
2018-02-06T18:52:36.219Z,9.27
2018-02-06T18:55:03.734Z,8.47
2018-02-06T18:57:31.329Z,8.93
2018-02-06T18:59:59.616Z,9.10
2018-02-06T19:02:27.273Z,9.63
2018-02-06T19:04:54.825Z,9.07
2018-02-06T19:07:22.536Z,8.30
2018-02-06T19:09:50.083Z,9.37
2018-02-06T19:12:17.666Z,8.17
2018-02-06T19:14:45.238Z,9.73
2018-02-06T19:17:12.915Z,9.60
2018-02-06T19:19:40.641Z,8.17
2018-02-06T19:22:08.153Z,8.33
2018-02-06T19:24:35.687Z,5.77
2018-02-06T19:27:03.255Z,8.87
2018-02-06T19:29:31.658Z,9.30
2018-02-06T19:31:59.737Z,8.73
2018-02-06T19:34:27.282Z,7.57
2018-02-06T19:36:54.805Z,10.77
2018-02-06T19:39:22.324Z,8.67
2018-02-06T19:41:49.874Z,10.00
2018-02-06T19:44:17.405Z,9.80
2018-02-06T19:46:44.970Z,9.20
2018-02-06T19:49:12.498Z,9.90
2018-02-06T19:51:40.997Z,9.37
2018-02-06T19:54:10.424Z,8.07
2018-02-06T19:56:37.950Z,9.17
2018-02-06T19:59:05.854Z,7.00
2018-02-06T20:01:33.898Z,7.67
2018-02-06T20:04:02.375Z,10.30
2018-02-06T20:06:30.683Z,8.70
2018-02-06T20:08:58.405Z,8.63
2018-02-06T20:11:25.958Z,8.40
2018-02-06T20:13:53.926Z,9.07
2018-02-06T20:16:21.423Z,8.97
2018-02-06T20:18:49.366Z,7.90
2018-02-06T20:21:17.864Z,8.80
2018-02-06T20:23:46.138Z,8.80
2018-02-06T20:26:14.472Z,10.47
2018-02-06T20:28:42.248Z,7.60
2018-02-06T20:31:10.580Z,8.40
2018-02-06T20:33:38.088Z,8.93
2018-02-06T20:36:05.637Z,8.20
2018-02-06T20:38:33.170Z,9.83
2018-02-06T20:41:00.868Z,9.83
2018-02-06T20:43:28.426Z,10.70
2018-02-06T20:45:56.037Z,9.80
2018-02-06T20:48:24.541Z,9.73
2018-02-06T20:50:52.160Z,6.57
2018-02-06T20:53:19.867Z,10.70
2018-02-06T20:55:47.554Z,10.57
2018-02-06T20:58:15.834Z,10.20
2018-02-06T21:00:43.355Z,9.00
2018-02-06T21:03:11.522Z,11.40
2018-02-06T21:05:39.163Z,9.83
2018-02-06T21:08:07.553Z,10.20
2018-02-06T21:10:35.333Z,14.57
2018-02-06T21:13:02.834Z,11.73
2018-02-06T21:15:31.160Z,13.03
2018-02-06T21:17:58.696Z,12.70
2018-02-06T21:20:27.312Z,12.07
2018-02-06T21:22:55.382Z,11.73
2018-02-06T21:25:23.215Z,12.90
2018-02-06T21:27:50.723Z,11.53
2018-02-06T21:30:18.279Z,9.63
2018-02-06T21:32:45.914Z,12.37
2018-02-06T21:35:13.419Z,11.63
2018-02-06T21:37:40.944Z,11.63
2018-02-06T21:40:08.486Z,12.30
2018-02-06T21:42:36.673Z,11.43
2018-02-06T21:45:04.215Z,11.00
2018-02-06T21:47:31.878Z,11.43
2018-02-06T21:49:59.716Z,10.97
2018-02-06T21:52:27.359Z,11.47
2018-02-06T21:54:55.484Z,8.70
2018-02-06T21:57:23.165Z,11.57
2018-02-06T21:59:50.871Z,10.87
2018-02-06T22:02:18.918Z,10.53
2018-02-06T22:04:48.058Z,9.10
2018-02-06T22:07:15.786Z,10.87
2018-02-06T22:09:43.803Z,10.37
2018-02-06T22:12:12.080Z,11.00
2018-02-06T22:14:39.606Z,11.83
2018-02-06T22:17:07.218Z,12.43
2018-02-06T22:19:34.743Z,11.47
2018-02-06T22:22:02.373Z,11.10
2018-02-06T22:24:30.739Z,12.60
2018-02-06T22:26:58.288Z,12.17
2018-02-06T22:29:25.847Z,10.87
2018-02-06T22:31:53.461Z,12.20
2018-02-06T22:34:21.032Z,13.20
2018-02-06T22:36:49.314Z,12.30
2018-02-06T22:39:21.527Z,12.50
2018-02-06T22:41:49.050Z,12.70
2018-02-06T22:44:16.823Z,11.87
2018-02-06T22:46:46.106Z,12.10
2018-02-06T22:49:14.618Z,13.30
2018-02-06T22:51:42.152Z,14.30
2018-02-06T22:54:10.567Z,8.73
2018-02-06T22:56:38.261Z,13.80
2018-02-06T22:59:05.803Z,9.37
2018-02-06T23:01:33.324Z,9.00
2018-02-06T23:04:01.593Z,13.97
2018-02-06T23:06:29.981Z,13.80
2018-02-06T23:08:57.672Z,12.37
2018-02-06T23:11:25.232Z,12.93
2018-02-06T23:13:52.777Z,13.67
2018-02-06T23:16:20.559Z,14.47
2018-02-06T23:18:48.720Z,14.60
2018-02-06T23:21:16.446Z,14.40
2018-02-06T23:23:44.933Z,13.47
2018-02-06T23:26:13.318Z,14.20
2018-02-06T23:28:41.617Z,15.77
2018-02-06T23:31:09.184Z,14.77
2018-02-06T23:33:36.861Z,15.20
2018-02-06T23:36:04.588Z,15.60
2018-02-06T23:38:32.874Z,15.07
2018-02-06T23:41:00.469Z,16.07
2018-02-06T23:43:28.150Z,15.20
2018-02-06T23:45:56.471Z,16.13
2018-02-06T23:48:24.147Z,15.57
2018-02-06T23:50:51.858Z,13.23
2018-02-06T23:53:19.399Z,14.03
2018-02-06T23:55:47.022Z,17.03
2018-02-06T23:58:14.661Z,16.53
